Time;durP1;ratioP1;P1;durP2;ratioP2;P2;SDS_P1;SDS_P2;PMS_P1;PMS_P2;Temp;Humidity;BMP_temperature;BMP_pressure;BME280_temperature;BME280_humidity;BME280_pressure;Samples;Min_cycle;Max_cycle;Signal;HPM_P1;HPM_P2
2021/12/07 00:01:39;;;;;;;15.23;10.77;;;3.70;99.90;;;;;;5052275;28;20071;-80
2021/12/07 00:04:06;;;;;;;16.77;11.15;;;3.70;99.90;;;;;;5052850;28;20029;-81
2021/12/07 00:06:32;;;;;;;16.85;11.77;;;3.80;99.90;;;;;;5052072;28;20072;-80
2021/12/07 00:08:58;;;;;;;16.95;12.43;;;3.70;99.90;;;;;;5051861;28;20050;-81
2021/12/07 00:11:25;;;;;;;18.35;10.55;;;3.80;99.90;;;;;;5051211;28;20088;-80
2021/12/07 00:13:52;;;;;;;17.17;11.02;;;3.70;99.90;;;;;;5051930;28;20025;-80
2021/12/07 00:16:19;;;;;;;15.98;11.40;;;3.80;99.90;;;;;;5051079;28;20465;-80
2021/12/07 00:18:45;;;;;;;16.95;9.48;;;3.80;99.90;;;;;;5051910;28;20052;-80
2021/12/07 00:21:11;;;;;;;17.23;10.48;;;3.90;99.90;;;;;;5051233;28;20462;-80
2021/12/07 00:23:37;;;;;;;16.52;9.63;;;3.90;99.90;;;;;;5052246;28;20108;-80
2021/12/07 00:26:04;;;;;;;18.05;9.77;;;3.90;99.90;;;;;;5051696;28;20392;-80
2021/12/07 00:28:29;;;;;;;26.02;10.57;;;4.10;99.90;;;;;;5051348;28;20025;-79
2021/12/07 00:31:04;;;;;;;14.18;8.00;;;4.10;99.90;;;;;;5052399;28;20378;-79
2021/12/07 00:33:37;;;;;;;13.75;7.97;;;4.10;99.90;;;;;;5051656;28;20469;-78
2021/12/07 00:36:03;;;;;;;17.02;8.35;;;4.20;99.90;;;;;;5051661;28;20044;-79
2021/12/07 00:38:31;;;;;;;15.20;7.75;;;4.30;99.90;;;;;;5052112;28;20032;-79
2021/12/07 00:40:58;;;;;;;23.48;8.77;;;4.40;99.90;;;;;;5052199;28;20055;-82
2021/12/07 00:43:26;;;;;;;15.57;7.90;;;4.40;99.90;;;;;;5051948;28;20162;-79
2021/12/07 00:45:54;;;;;;;20.85;8.57;;;4.30;99.90;;;;;;5051547;28;20033;-80
2021/12/07 00:48:20;;;;;;;17.27;7.78;;;4.30;99.90;;;;;;5051675;28;20355;-80
2021/12/07 00:50:48;;;;;;;14.52;7.10;;;4.20;99.90;;;;;;5051603;28;20052;-80
2021/12/07 00:53:14;;;;;;;14.45;5.80;;;4.20;99.90;;;;;;5051466;28;20021;-80
2021/12/07 00:55:44;;;;;;;13.30;5.82;;;4.30;99.90;;;;;;5051908;28;20040;-80
2021/12/07 00:58:17;;;;;;;19.23;5.43;;;4.20;99.90;;;;;;5052013;28;20036;-82
2021/12/07 01:00:45;;;;;;;16.45;4.97;;;4.20;99.90;;;;;;5052208;28;20021;-80
2021/12/07 01:03:10;;;;;;;17.80;4.03;;;4.10;99.90;;;;;;5052121;28;20086;-81
2021/12/07 01:05:39;;;;;;;13.40;3.40;;;4.10;99.90;;;;;;5055522;28;20036;-80
2021/12/07 01:26:58;;;;;;;22.33;3.83;;;5.30;99.90;;;;;;5056107;28;20159;-81
2021/12/07 01:29:26;;;;;;;20.10;2.13;;;5.30;99.90;;;;;;5054927;28;20017;-80
2021/12/07 01:37:32;;;;;;;14.00;2.38;;;5.20;99.90;;;;;;5055026;28;20040;-80
2021/12/07 01:48:07;;;;;;;13.60;2.10;;;5.00;99.90;;;;;;5056097;28;20060;-81
2021/12/07 02:00:50;;;;;;;13.25;1.98;;;4.60;99.90;;;;;;5034609;28;20031;-81
2021/12/07 02:03:16;;;;;;;11.30;1.50;;;4.40;99.90;;;;;;5033883;28;20029;-81
2021/12/07 02:05:42;;;;;;;13.65;1.88;;;4.40;99.90;;;;;;5034131;28;20492;-81
2021/12/07 02:08:14;;;;;;;9.25;2.45;;;4.40;99.90;;;;;;5033969;28;20021;-81
2021/12/07 02:10:40;;;;;;;12.45;2.25;;;4.30;99.90;;;;;;5034085;28;20072;-81
2021/12/07 02:13:20;;;;;;;14.52;2.05;;;4.20;99.90;;;;;;5034255;28;20471;-80
2021/12/07 02:15:46;;;;;;;21.77;3.80;;;4.30;99.90;;;;;;5033488;28;20025;-81
2021/12/07 02:18:12;;;;;;;15.38;2.40;;;4.40;99.90;;;;;;5033981;28;20119;-80
2021/12/07 02:20:38;;;;;;;11.35;1.70;;;4.40;99.90;;;;;;5034151;28;20119;-81
2021/12/07 02:23:04;;;;;;;11.30;3.17;;;4.50;99.90;;;;;;5034423;28;20035;-81
2021/12/07 02:25:32;;;;;;;9.98;2.28;;;4.60;99.90;;;;;;5033476;28;20539;-81
2021/12/07 02:27:57;;;;;;;16.23;2.65;;;4.60;99.90;;;;;;5034843;28;20041;-80
2021/12/07 02:30:25;;;;;;;14.65;2.80;;;4.60;99.90;;;;;;5034011;28;20033;-80
2021/12/07 02:32:53;;;;;;;14.05;1.95;;;4.50;99.90;;;;;;5034451;28;20351;-81
2021/12/07 02:35:26;;;;;;;11.70;2.05;;;4.40;99.90;;;;;;5033352;28;20470;-79
2021/12/07 02:37:53;;;;;;;13.80;2.25;;;4.30;99.90;;;;;;5034568;28;20413;-79
2021/12/07 02:40:19;;;;;;;7.35;2.45;;;4.10;99.90;;;;;;5034946;28;20029;-80
2021/12/07 02:42:45;;;;;;;13.52;1.90;;;4.00;99.90;;;;;;5034316;28;20569;-79
2021/12/07 02:45:11;;;;;;;13.27;2.30;;;3.80;99.90;;;;;;5033369;28;20535;-81
2021/12/07 02:47:37;;;;;;;12.63;2.40;;;3.80;99.90;;;;;;5034268;28;20027;-80
2021/12/07 02:50:05;;;;;;;32.30;3.05;;;3.70;99.90;;;;;;5033511;28;20104;-81
2021/12/07 02:52:31;;;;;;;9.05;1.50;;;3.70;99.90;;;;;;5033377;28;20063;-80
2021/12/07 02:54:57;;;;;;;13.80;2.22;;;3.70;99.90;;;;;;5041722;28;20022;-79
2021/12/07 02:57:23;;;;;;;15.68;3.70;;;3.70;99.90;;;;;;5036082;28;20017;-80
2021/12/07 02:59:58;;;;;;;14.15;2.58;;;3.70;99.90;;;;;;5033644;28;20029;-81
2021/12/07 03:02:24;;;;;;;8.95;1.67;;;3.80;99.90;;;;;;5033419;28;20040;-81
2021/12/07 03:05:02;;;;;;;22.50;2.55;;;3.80;99.90;;;;;;5032746;28;20434;-80
2021/12/07 03:26:35;;;;;;;16.08;2.00;;;4.40;99.90;;;;;;5033308;28;20186;-82
2021/12/07 03:29:02;;;;;;;7.45;1.65;;;4.40;99.90;;;;;;5032527;28;20063;-79
2021/12/07 03:31:29;;;;;;;21.60;2.70;;;4.30;99.90;;;;;;5032831;28;20033;-81
2021/12/07 03:33:57;;;;;;;14.13;3.35;;;4.10;99.90;;;;;;5033417;28;20041;-80
2021/12/07 03:36:24;;;;;;;9.15;2.83;;;4.00;99.90;;;;;;5032652;28;20433;-80
2021/12/07 03:38:50;;;;;;;8.35;2.28;;;4.00;99.90;;;;;;5032729;28;20095;-79
2021/12/07 03:41:16;;;;;;;16.05;1.92;;;4.00;99.90;;;;;;5033050;28;20057;-81
2021/12/07 03:43:42;;;;;;;13.13;2.67;;;3.90;99.90;;;;;;5032928;28;20222;-81
2021/12/07 03:46:09;;;;;;;10.18;1.90;;;4.10;99.90;;;;;;5032554;28;20041;-82
2021/12/07 03:48:35;;;;;;;13.35;2.03;;;4.10;99.90;;;;;;5032954;28;20032;-81
2021/12/07 03:51:01;;;;;;;17.95;2.15;;;4.20;99.90;;;;;;5033325;28;20470;-79
2021/12/07 03:53:30;;;;;;;19.13;2.88;;;4.20;99.90;;;;;;5033153;28;20035;-80
2021/12/07 03:55:57;;;;;;;13.90;1.92;;;4.10;99.90;;;;;;5033511;28;20029;-80
2021/12/07 03:58:23;;;;;;;9.63;2.20;;;4.10;99.90;;;;;;5033354;28;20041;-80
2021/12/07 04:00:48;;;;;;;14.45;1.80;;;4.10;99.90;;;;;;5032194;28;20401;-80
2021/12/07 04:03:17;;;;;;;10.13;1.80;;;4.10;99.90;;;;;;5032586;28;20033;-81
2021/12/07 04:05:47;;;;;;;16.33;2.10;;;4.20;99.90;;;;;;5033121;28;20049;-80
2021/12/07 04:08:14;;;;;;;16.70;1.95;;;4.30;99.90;;;;;;5032573;28;20032;-80
2021/12/07 04:10:40;;;;;;;12.05;1.85;;;4.40;99.90;;;;;;5033043;28;20136;-80
2021/12/07 04:13:06;;;;;;;12.85;2.05;;;4.30;99.90;;;;;;5032877;28;20069;-80
2021/12/07 04:15:32;;;;;;;7.60;1.70;;;4.20;99.90;;;;;;5033560;28;20032;-80
2021/12/07 04:17:58;;;;;;;22.58;2.00;;;4.20;99.90;;;;;;5033566;28;20022;-81
2021/12/07 04:20:23;;;;;;;13.65;2.10;;;4.30;99.90;;;;;;5032626;28;20025;-80
2021/12/07 04:22:49;;;;;;;18.17;2.60;;;4.30;99.90;;;;;;5033831;28;20033;-81
2021/12/07 04:25:17;;;;;;;15.05;3.97;;;4.30;99.90;;;;;;5031665;28;20068;-79
2021/12/07 04:27:43;;;;;;;15.02;2.47;;;4.30;99.90;;;;;;5032678;28;20025;-79
2021/12/07 04:30:13;;;;;;;16.35;2.72;;;4.40;99.90;;;;;;5038066;28;20034;-80
2021/12/07 04:32:39;;;;;;;10.17;1.83;;;4.40;99.90;;;;;;5032902;28;20025;-81
2021/12/07 04:35:07;;;;;;;16.30;1.73;;;4.50;99.90;;;;;;5032508;28;20091;-81
2021/12/07 04:37:33;;;;;;;17.58;1.98;;;4.50;99.90;;;;;;5034365;28;20029;-84
2021/12/07 04:39:59;;;;;;;15.52;1.98;;;4.50;99.90;;;;;;5038203;28;20025;-83
2021/12/07 04:42:26;;;;;;;13.00;1.75;;;4.50;99.90;;;;;;5038680;28;20106;-83
2021/12/07 04:44:55;;;;;;;13.48;2.05;;;4.50;99.90;;;;;;5038214;28;20040;-83
2021/12/07 04:47:31;;;;;;;13.80;2.10;;;4.50;99.90;;;;;;5039042;28;20113;-83
2021/12/07 04:57:38;;;;;;;7.93;1.15;;;4.40;99.90;;;;;;5038418;28;20106;-83
2021/12/07 04:58:29;;;;;;;5.55;1.33;;;4.30;99.90;;;;;;5037840;28;20489;-82
2021/12/07 05:00:54;;;;;;;8.02;1.73;;;4.30;99.90;;;;;;5038001;28;20030;-83
2021/12/07 05:03:20;;;;;;;12.93;1.85;;;4.20;99.90;;;;;;5038262;28;20243;-83
2021/12/07 05:05:50;;;;;;;11.05;1.52;;;4.20;99.90;;;;;;5038940;28;20041;-83
2021/12/07 05:08:30;;;;;;;6.55;1.38;;;4.20;99.90;;;;;;5038511;28;20033;-81
2021/12/07 05:11:27;;;;;;;13.13;1.70;;;4.00;99.90;;;;;;5037782;28;20136;-84
2021/12/07 05:13:55;;;;;;;7.50;1.55;;;3.90;99.90;;;;;;5038123;28;20040;-82
2021/12/07 05:19:14;;;;;;;12.00;2.78;;;3.90;99.90;;;;;;5036720;28;20385;-83
2021/12/07 05:24:24;;;;;;;7.50;1.92;;;4.00;99.90;;;;;;5036627;28;20025;-82
2021/12/07 05:37:52;;;;;;;8.93;1.70;;;4.30;99.90;;;;;;5036839;28;20029;-82
2021/12/07 05:40:29;;;;;;;14.57;1.90;;;4.30;99.90;;;;;;5036900;28;20359;-82
2021/12/07 05:42:56;;;;;;;11.55;2.28;;;4.20;99.90;;;;;;5035914;28;20095;-82
2021/12/07 05:45:35;;;;;;;10.75;1.70;;;4.20;99.90;;;;;;5035645;28;20048;-83
2021/12/07 05:48:02;;;;;;;8.32;1.40;;;4.30;99.90;;;;;;5035960;28;20028;-83
2021/12/07 05:50:30;;;;;;;7.32;1.52;;;4.20;99.90;;;;;;5034993;28;20108;-83
2021/12/07 05:52:56;;;;;;;11.48;2.80;;;4.00;99.90;;;;;;5035601;28;20041;-83
2021/12/07 05:55:22;;;;;;;11.82;2.13;;;4.00;99.90;;;;;;5035249;28;20436;-82
2021/12/07 05:57:48;;;;;;;14.18;2.33;;;3.90;99.90;;;;;;5036314;28;20025;-80
2021/12/07 06:00:24;;;;;;;13.00;1.98;;;3.80;99.90;;;;;;5038027;28;20032;-83
2021/12/07 06:02:51;;;;;;;11.10;1.75;;;3.70;99.90;;;;;;5051860;28;20061;-81
2021/12/07 06:05:20;;;;;;;8.88;1.55;;;3.60;99.90;;;;;;5041693;28;20029;-82
2021/12/07 06:07:46;;;;;;;6.43;1.60;;;3.50;99.90;;;;;;5034226;28;20096;-82
2021/12/07 06:10:12;;;;;;;13.60;1.88;;;3.40;99.90;;;;;;5036605;28;20536;-82
2021/12/07 06:12:37;;;;;;;9.10;1.63;;;3.30;99.90;;;;;;5033994;28;20028;-82
2021/12/07 06:15:03;;;;;;;6.00;1.20;;;3.20;99.90;;;;;;5034174;28;20040;-83
2021/12/07 06:17:29;;;;;;;15.02;2.33;;;3.10;99.90;;;;;;5036211;28;20482;-83
2021/12/07 06:19:54;;;;;;;5.93;1.60;;;3.10;99.90;;;;;;5033845;28;20036;-83
2021/12/07 06:22:20;;;;;;;8.90;1.92;;;3.10;99.90;;;;;;5036536;28;20022;-83
2021/12/07 06:24:45;;;;;;;7.20;2.47;;;3.10;99.90;;;;;;5048373;28;20647;-83
2021/12/07 06:27:11;;;;;;;5.05;1.83;;;3.00;99.90;;;;;;5052804;28;20136;-83
2021/12/07 06:29:37;;;;;;;7.28;1.75;;;3.10;99.90;;;;;;5051355;28;20100;-83
2021/12/07 06:32:04;;;;;;;7.55;2.40;;;2.90;99.90;;;;;;5051536;28;20090;-83
2021/12/07 06:34:31;;;;;;;7.85;2.28;;;3.00;99.90;;;;;;5050639;28;20087;-82
2021/12/07 06:36:57;;;;;;;10.65;2.45;;;3.00;99.90;;;;;;5053369;28;20017;-82
2021/12/07 06:39:22;;;;;;;13.77;2.53;;;3.00;99.90;;;;;;5053620;28;20445;-82
2021/12/07 06:41:49;;;;;;;5.72;1.85;;;3.00;99.90;;;;;;5049737;28;20017;-83
2021/12/07 06:44:14;;;;;;;9.02;2.67;;;3.00;99.90;;;;;;5052055;28;20036;-81
2021/12/07 06:46:40;;;;;;;13.85;1.67;;;3.00;99.90;;;;;;5051444;28;20439;-82
2021/12/07 06:49:06;;;;;;;12.88;2.42;;;3.10;99.90;;;;;;5053321;28;20013;-82
2021/12/07 06:51:31;;;;;;;11.77;1.92;;;3.00;99.90;;;;;;5054087;28;20037;-81
2021/12/07 06:53:57;;;;;;;7.10;1.98;;;3.10;99.90;;;;;;5051070;28;20070;-81
2021/12/07 06:56:23;;;;;;;14.32;3.58;;;3.00;99.90;;;;;;5051570;28;20025;-81
2021/12/07 06:58:48;;;;;;;10.57;2.15;;;3.00;99.90;;;;;;5052035;28;20453;-83
2021/12/07 07:01:14;;;;;;;10.63;2.33;;;3.00;99.90;;;;;;5050794;28;20021;-82
2021/12/07 07:03:40;;;;;;;7.00;2.53;;;3.00;99.90;;;;;;5053526;28;20365;-82
2021/12/07 07:06:06;;;;;;;6.07;2.05;;;3.00;99.90;;;;;;5053806;28;20032;-81
2021/12/07 07:08:32;;;;;;;17.25;2.38;;;2.90;99.90;;;;;;5053310;28;20480;-83
2021/12/07 07:10:58;;;;;;;8.55;1.92;;;3.00;99.90;;;;;;5047363;28;20045;-81
2021/12/07 07:13:24;;;;;;;15.50;2.35;;;2.90;99.90;;;;;;5053070;28;20127;-81
2021/12/07 07:15:49;;;;;;;10.38;2.50;;;2.90;99.90;;;;;;5053683;28;20033;-82
2021/12/07 07:18:15;;;;;;;12.15;2.28;;;2.90;99.90;;;;;;5051659;28;20029;-82
2021/12/07 07:20:40;;;;;;;6.95;1.92;;;2.90;99.90;;;;;;5052848;28;20461;-83
2021/12/07 07:23:06;;;;;;;7.18;2.42;;;3.00;99.90;;;;;;5042807;28;20033;-82
2021/12/07 07:25:32;;;;;;;10.23;1.88;;;3.00;99.90;;;;;;5055595;28;20072;-82
2021/12/07 07:28:00;;;;;;;15.85;2.95;;;3.10;99.90;;;;;;5051483;28;20028;-82
2021/12/07 07:30:26;;;;;;;11.15;1.90;;;3.20;99.90;;;;;;5034598;28;20029;-82
2021/12/07 07:32:52;;;;;;;15.27;2.00;;;3.30;99.90;;;;;;5035964;28;20036;-82
2021/12/07 07:35:19;;;;;;;18.45;3.47;;;3.40;99.90;;;;;;5042509;28;20021;-81
2021/12/07 07:37:45;;;;;;;7.95;1.92;;;3.40;99.90;;;;;;5038855;28;20021;-83
2021/12/07 07:40:17;;;;;;;12.75;2.20;;;3.40;99.90;;;;;;5051022;28;20071;-83
2021/12/07 07:42:46;;;;;;;10.45;2.03;;;3.30;99.90;;;;;;5051430;28;20035;-82
2021/12/07 07:45:12;;;;;;;14.90;2.15;;;3.30;99.90;;;;;;5049401;28;20451;-80
2021/12/07 07:47:38;;;;;;;9.95;1.80;;;3.30;99.90;;;;;;5044664;28;20693;-80
2021/12/07 07:50:07;;;;;;;12.95;1.95;;;3.30;99.90;;;;;;5048899;28;20035;-80
2021/12/07 07:52:32;;;;;;;12.63;3.22;;;3.30;99.90;;;;;;5051705;28;20021;-79
2021/12/07 07:54:58;;;;;;;11.55;2.10;;;3.30;99.90;;;;;;5051917;28;20043;-79
2021/12/07 07:57:24;;;;;;;11.10;2.15;;;3.30;99.90;;;;;;5051858;28;20104;-81
2021/12/07 07:59:49;;;;;;;14.90;2.42;;;3.30;99.90;;;;;;5052054;28;20020;-80
2021/12/07 08:02:15;;;;;;;10.60;2.13;;;3.30;99.90;;;;;;5051929;28;20416;-81
2021/12/07 08:04:41;;;;;;;9.93;1.90;;;3.40;99.90;;;;;;5052251;28;20557;-80
2021/12/07 08:07:07;;;;;;;11.65;2.53;;;3.40;99.90;;;;;;5052059;28;20082;-79
2021/12/07 08:09:32;;;;;;;15.05;3.08;;;3.40;99.90;;;;;;5051529;28;20112;-80
2021/12/07 08:11:58;;;;;;;12.32;2.35;;;3.40;99.90;;;;;;5051696;28;20125;-79
2021/12/07 08:14:24;;;;;;;9.27;2.58;;;3.40;99.90;;;;;;5056241;28;20500;-78
2021/12/07 08:16:50;;;;;;;17.50;3.10;;;3.50;99.90;;;;;;5058482;28;20017;-77
2021/12/07 08:19:16;;;;;;;11.55;2.08;;;3.50;99.90;;;;;;5058817;28;20028;-78
2021/12/07 08:21:41;;;;;;;5.55;2.03;;;3.50;99.90;;;;;;5059021;28;20472;-81
2021/12/07 08:24:07;;;;;;;15.00;1.90;;;3.50;99.90;;;;;;5052591;28;20087;-80
2021/12/07 08:26:33;;;;;;;10.15;2.50;;;3.50;99.90;;;;;;5037984;28;20029;-80
2021/12/07 08:29:00;;;;;;;13.13;2.50;;;3.50;99.90;;;;;;5039232;28;20021;-77
2021/12/07 08:31:27;;;;;;;10.80;2.03;;;3.50;99.90;;;;;;5038542;28;20083;-77
2021/12/07 08:33:53;;;;;;;13.52;2.90;;;3.50;99.90;;;;;;5039516;28;20490;-79
2021/12/07 08:36:19;;;;;;;8.23;2.38;;;3.50;99.90;;;;;;5058114;28;20068;-79
2021/12/07 08:38:45;;;;;;;8.88;2.75;;;3.50;99.90;;;;;;5041127;28;20101;-80
2021/12/07 08:41:11;;;;;;;10.45;3.47;;;3.50;99.90;;;;;;5037277;28;20128;-78
2021/12/07 08:43:39;;;;;;;12.05;3.22;;;3.60;99.90;;;;;;5038806;28;20025;-80
2021/12/07 08:46:05;;;;;;;17.25;3.88;;;3.60;99.90;;;;;;5038301;28;20504;-77
2021/12/07 08:48:31;;;;;;;11.93;3.42;;;3.70;99.90;;;;;;5040048;28;20362;-77
2021/12/07 08:50:59;;;;;;;19.50;3.53;;;3.80;99.90;;;;;;5038164;28;20017;-77
2021/12/07 08:53:25;;;;;;;14.23;2.90;;;3.80;99.90;;;;;;5037876;28;20090;-77
2021/12/07 09:01:23;;;;;;;9.88;3.92;;;3.90;99.90;;;;;;5055816;28;20040;-77
2021/12/07 09:03:52;;;;;;;14.27;4.22;;;3.90;99.90;;;;;;5056732;28;20420;-79
2021/12/07 09:06:18;;;;;;;28.83;5.30;;;4.00;99.90;;;;;;5060483;28;20029;-79
2021/12/07 09:08:44;;;;;;;20.58;6.40;;;3.90;99.90;;;;;;5067816;28;20056;-78
2021/12/07 09:11:11;;;;;;;17.02;4.53;;;3.90;99.90;;;;;;5060167;28;20076;-79
2021/12/07 09:13:37;;;;;;;21.52;5.53;;;4.00;99.90;;;;;;5056455;28;20056;-79
2021/12/07 09:16:03;;;;;;;27.50;6.68;;;4.00;99.90;;;;;;5056434;28;20102;-82
2021/12/07 09:18:29;;;;;;;21.80;5.57;;;4.00;99.90;;;;;;5056410;28;20025;-78
2021/12/07 09:20:56;;;;;;;16.77;4.78;;;4.00;99.90;;;;;;5056441;28;20480;-79
2021/12/07 09:23:23;;;;;;;22.27;4.60;;;4.10;99.90;;;;;;5056289;28;20017;-79
2021/12/07 09:25:49;;;;;;;20.65;4.68;;;4.10;99.90;;;;;;5054197;28;20071;-77
2021/12/07 09:28:15;;;;;;;15.65;5.53;;;4.10;99.90;;;;;;5052641;28;20389;-78
2021/12/07 09:30:41;;;;;;;31.17;6.03;;;4.10;99.90;;;;;;5052509;28;20025;-78
2021/12/07 09:33:07;;;;;;;20.58;5.30;;;4.20;99.90;;;;;;5052381;28;20017;-76
2021/12/07 09:35:33;;;;;;;23.33;6.88;;;4.20;99.90;;;;;;5051022;28;20025;-77
2021/12/07 09:37:59;;;;;;;16.38;6.60;;;4.20;99.90;;;;;;5052503;28;20029;-77
2021/12/07 09:40:28;;;;;;;21.58;6.25;;;4.30;99.90;;;;;;5052499;28;20095;-78
2021/12/07 09:42:56;;;;;;;25.92;6.85;;;4.30;99.90;;;;;;5052671;28;20025;-78
2021/12/07 09:45:25;;;;;;;30.67;7.35;;;4.40;99.90;;;;;;5047519;28;20119;-77
2021/12/07 09:47:53;;;;;;;29.77;7.38;;;4.40;99.90;;;;;;5052604;28;20354;-77
2021/12/07 09:50:24;;;;;;;20.17;6.60;;;4.50;99.90;;;;;;5052252;28;20378;-77
2021/12/07 09:52:50;;;;;;;26.17;7.28;;;4.50;99.90;;;;;;5051665;28;20039;-76
2021/12/07 09:55:16;;;;;;;28.52;7.80;;;4.50;99.90;;;;;;5052511;28;20037;-77
2021/12/07 09:57:43;;;;;;;19.65;6.05;;;4.50;99.90;;;;;;5052496;28;20021;-78
2021/12/07 10:00:12;;;;;;;33.00;8.15;;;4.60;99.90;;;;;;5052696;28;20430;-77
2021/12/07 10:02:37;;;;;;;33.85;8.63;;;4.60;99.90;;;;;;5052809;28;20025;-77
2021/12/07 10:05:03;;;;;;;30.88;9.88;;;5.60;99.90;;;;;;5052162;28;20451;-77
2021/12/07 10:07:29;;;;;;;26.45;8.20;;;4.70;99.90;;;;;;5051653;28;20029;-77
2021/12/07 10:09:55;;;;;;;34.67;9.50;;;4.70;99.90;;;;;;5052306;28;20102;-77
2021/12/07 10:12:23;;;;;;;25.98;8.95;;;4.80;99.90;;;;;;5051881;28;20052;-76
2021/12/07 10:14:49;;;;;;;36.65;11.00;;;4.80;99.90;;;;;;5051871;28;20032;-77
2021/12/07 10:17:21;;;;;;;34.97;9.57;;;4.90;99.90;;;;;;5051824;28;20078;-77
2021/12/07 10:19:48;;;;;;;36.88;9.80;;;5.00;99.90;;;;;;5051693;28;20465;-77
2021/12/07 10:22:18;;;;;;;33.40;8.18;;;5.00;99.90;;;;;;5051230;28;20155;-77
2021/12/07 10:24:48;;;;;;;35.78;9.15;;;5.10;99.90;;;;;;5052015;28;20495;-77
2021/12/07 10:27:32;;;;;;;26.87;9.40;;;5.20;99.90;;;;;;5051414;28;20163;-79
2021/12/07 10:29:58;;;;;;;38.42;8.95;;;5.30;99.90;;;;;;5051884;28;20036;-78
2021/12/07 10:32:23;;;;;;;36.05;8.32;;;5.30;99.90;;;;;;5052324;28;20029;-77
2021/12/07 10:34:50;;;;;;;30.60;7.65;;;5.40;99.90;;;;;;5051791;28;20028;-77
2021/12/07 10:37:17;;;;;;;29.33;6.97;;;5.40;99.90;;;;;;5039999;28;20059;-78
2021/12/07 10:39:47;;;;;;;38.92;8.93;;;5.40;99.90;;;;;;5046452;28;20141;-79
2021/12/07 10:42:29;;;;;;;21.58;7.53;;;5.50;99.90;;;;;;5053484;28;20029;-78
2021/12/07 10:44:58;;;;;;;32.85;7.10;;;5.60;99.90;;;;;;5051628;28;20032;-77
2021/12/07 10:47:24;;;;;;;26.55;7.38;;;5.60;99.90;;;;;;5051160;28;20086;-76
2021/12/07 10:49:58;;;;;;;28.38;8.63;;;5.70;99.90;;;;;;5051706;28;20029;-78
2021/12/07 10:52:34;;;;;;;24.95;6.30;;;5.80;99.90;;;;;;5051352;28;20116;-78
2021/12/07 10:55:05;;;;;;;24.65;6.60;;;5.80;99.90;;;;;;5051728;28;20020;-77
2021/12/07 10:57:38;;;;;;;32.80;7.35;;;5.80;99.90;;;;;;5051005;28;20025;-77
2021/12/07 11:00:40;;;;;;;28.52;6.80;;;5.90;99.90;;;;;;5051933;28;20033;-78
2021/12/07 11:03:20;;;;;;;30.67;7.30;;;6.00;99.90;;;;;;5048654;28;20500;-76
2021/12/07 11:05:54;;;;;;;35.28;7.25;;;6.00;99.90;;;;;;5051615;28;20400;-76
2021/12/07 11:08:27;;;;;;;20.58;6.25;;;6.10;99.90;;;;;;5047924;28;20021;-75
2021/12/07 11:10:54;;;;;;;35.28;7.55;;;6.10;99.90;;;;;;5050255;28;20049;-79
2021/12/07 11:13:25;;;;;;;17.02;5.40;;;6.20;99.90;;;;;;5051298;28;20025;-78
2021/12/07 11:15:56;;;;;;;26.15;6.22;;;6.30;99.90;;;;;;5051100;28;20396;-77
2021/12/07 11:18:27;;;;;;;25.58;5.97;;;6.20;99.90;;;;;;5051043;28;20071;-77
2021/12/07 11:20:54;;;;;;;16.90;5.63;;;6.20;99.90;;;;;;5051251;28;20399;-76
2021/12/07 11:23:42;;;;;;;19.35;4.75;;;6.20;99.90;;;;;;5050486;28;20483;-77
2021/12/07 11:31:40;;;;;;;18.33;5.60;;;6.20;99.90;;;;;;5049135;28;20036;-78
2021/12/07 11:34:18;;;;;;;11.63;3.13;;;6.30;99.90;;;;;;5050048;28;20025;-77
2021/12/07 11:36:49;;;;;;;11.95;3.05;;;6.30;99.90;;;;;;5051664;28;20052;-77
2021/12/07 11:39:21;;;;;;;12.60;3.20;;;6.40;99.90;;;;;;5051379;28;20070;-77
2021/12/07 11:41:51;;;;;;;10.43;3.33;;;6.40;99.90;;;;;;5051337;28;20090;-77
2021/12/07 11:44:19;;;;;;;8.85;3.25;;;6.40;99.90;;;;;;5050628;28;20048;-76
2021/12/07 11:46:49;;;;;;;10.52;4.00;;;6.30;99.90;;;;;;5051664;28;20028;-77
2021/12/07 11:49:23;;;;;;;11.52;3.55;;;6.20;99.90;;;;;;5056111;28;20029;-77
2021/12/07 11:51:55;;;;;;;10.82;3.70;;;6.20;99.90;;;;;;5062431;28;20104;-75
2021/12/07 11:54:24;;;;;;;13.65;3.50;;;6.10;99.90;;;;;;5059458;28;20117;-78
2021/12/07 11:56:50;;;;;;;13.73;4.90;;;6.20;99.90;;;;;;5050696;28;20025;-77
2021/12/07 11:59:18;;;;;;;7.03;2.88;;;6.20;99.90;;;;;;5050312;28;20033;-77
2021/12/07 12:01:46;;;;;;;11.88;4.07;;;6.20;99.90;;;;;;5046661;28;20029;-77
2021/12/07 12:04:12;;;;;;;9.20;3.55;;;6.20;99.90;;;;;;5050106;28;20197;-77
2021/12/07 12:06:38;;;;;;;9.57;3.30;;;6.30;99.90;;;;;;5049351;28;20385;-76
2021/12/07 12:09:04;;;;;;;6.93;2.78;;;6.20;99.90;;;;;;5047163;28;20428;-76
2021/12/07 12:11:49;;;;;;;12.02;3.22;;;6.30;99.90;;;;;;5049206;28;20481;-77
2021/12/07 12:14:27;;;;;;;8.68;3.05;;;6.30;99.90;;;;;;5057579;28;20461;-76
2021/12/07 12:17:00;;;;;;;8.45;2.95;;;6.40;99.90;;;;;;5048885;28;20076;-76
2021/12/07 12:20:01;;;;;;;13.32;3.60;;;6.40;99.90;;;;;;5046884;28;20123;-78
2021/12/07 12:22:42;;;;;;;12.15;3.28;;;6.40;99.90;;;;;;5049466;28;20485;-76
2021/12/07 12:25:17;;;;;;;17.30;3.35;;;7.20;99.90;;;;;;5050407;28;20032;-76
2021/12/07 12:27:45;;;;;;;15.07;3.78;;;6.50;99.90;;;;;;5049129;28;20024;-77
2021/12/07 12:30:29;;;;;;;9.60;2.63;;;6.50;99.90;;;;;;5049607;28;20430;-77
2021/12/07 12:33:01;;;;;;;10.48;3.30;;;6.60;99.90;;;;;;5049574;28;20029;-77
2021/12/07 12:35:38;;;;;;;11.80;2.85;;;6.60;99.90;;;;;;5049890;28;20021;-77
2021/12/07 12:38:28;;;;;;;7.40;3.15;;;6.60;99.90;;;;;;5050180;28;20489;-77
2021/12/07 12:41:01;;;;;;;4.45;2.80;;;6.60;99.90;;;;;;5049518;28;20381;-76
2021/12/07 12:43:44;;;;;;;16.48;2.72;;;6.60;99.90;;;;;;5046328;28;20059;-76
2021/12/07 12:46:13;;;;;;;9.60;2.35;;;6.60;99.90;;;;;;5049874;28;20044;-75
2021/12/07 12:48:48;;;;;;;14.02;3.17;;;6.50;99.90;;;;;;5047740;28;20108;-76
2021/12/07 12:51:14;;;;;;;4.13;1.77;;;6.50;99.90;;;;;;5049910;28;20420;-76
2021/12/07 12:53:41;;;;;;;5.57;2.40;;;6.50;99.90;;;;;;5049915;28;20017;-77
2021/12/07 12:56:10;;;;;;;7.90;2.75;;;6.50;99.90;;;;;;5049556;28;20084;-76
2021/12/07 12:58:48;;;;;;;11.15;2.58;;;6.50;99.90;;;;;;5050030;28;20033;-77
2021/12/07 13:01:37;;;;;;;9.45;3.20;;;6.50;99.90;;;;;;5050917;28;20504;-76
2021/12/07 13:04:30;;;;;;;11.10;2.85;;;6.50;99.90;;;;;;5053015;28;20541;-76
2021/12/07 13:09:44;;;;;;;8.07;2.60;;;6.50;99.90;;;;;;5052971;28;20465;-76
2021/12/07 13:12:19;;;;;;;9.68;3.05;;;6.40;99.90;;;;;;5053431;28;20036;-76
2021/12/07 13:15:33;;;;;;;13.68;3.70;;;6.40;99.90;;;;;;5053761;28;20024;-77
2021/12/07 13:18:00;;;;;;;12.27;3.33;;;6.40;99.90;;;;;;5011319;28;20030;-77
2021/12/07 13:20:31;;;;;;;9.57;4.15;;;6.30;99.90;;;;;;5049495;28;20094;-76
2021/12/07 13:22:56;;;;;;;;;;;6.30;99.90;;;;;;5051673;28;20116;-77
2021/12/07 13:25:29;;;;;;;11.20;3.35;;;6.20;99.90;;;;;;5052517;28;20084;-75
2021/12/07 13:28:04;;;;;;;7.80;3.25;;;6.20;99.90;;;;;;5053504;28;20382;-75
2021/12/07 13:31:01;;;;;;;8.38;3.63;;;6.20;99.90;;;;;;5055104;28;20036;-74
2021/12/07 13:33:34;;;;;;;9.00;3.17;;;6.10;99.90;;;;;;5056421;28;20060;-76
2021/12/07 13:36:18;;;;;;;12.05;2.80;;;6.10;99.90;;;;;;5055193;28;20105;-73
2021/12/07 13:38:44;;;;;;;6.70;2.60;;;6.10;99.90;;;;;;5050924;28;20408;-75
2021/12/07 13:41:15;;;;;;;10.90;3.70;;;6.10;99.90;;;;;;5052614;28;20051;-75
2021/12/07 13:43:44;;;;;;;12.07;3.00;;;6.10;99.90;;;;;;5052671;28;20025;-75
2021/12/07 13:46:14;;;;;;;9.35;3.28;;;6.00;99.90;;;;;;5054010;28;20037;-77
2021/12/07 13:48:43;;;;;;;10.02;2.78;;;6.00;99.90;;;;;;5058567;28;20025;-76
2021/12/07 13:51:16;;;;;;;12.70;2.92;;;6.00;99.90;;;;;;5051764;28;20033;-78
2021/12/07 13:53:43;;;;;;;11.38;3.03;;;6.00;99.90;;;;;;5052051;28;20525;-76
2021/12/07 13:56:10;;;;;;;10.75;2.75;;;5.90;99.90;;;;;;5053160;28;20032;-77
2021/12/07 13:58:58;;;;;;;10.00;2.88;;;5.90;99.90;;;;;;5054387;28;20082;-76
2021/12/07 14:01:27;;;;;;;13.70;2.95;;;5.80;99.90;;;;;;5050635;28;20061;-77
2021/12/07 14:03:53;;;;;;;12.02;3.08;;;5.80;99.90;;;;;;5049505;28;20111;-76
2021/12/07 14:06:19;;;;;;;12.98;3.53;;;5.80;99.90;;;;;;5047994;28;20040;-76
2021/12/07 14:08:45;;;;;;;12.85;3.10;;;5.70;99.90;;;;;;5052012;28;20112;-77
2021/12/07 14:11:18;;;;;;;13.80;3.30;;;5.70;99.90;;;;;;5050758;28;20076;-76
2021/12/07 14:13:47;;;;;;;14.85;3.10;;;5.70;99.90;;;;;;5051901;28;20059;-75
2021/12/07 14:16:15;;;;;;;14.50;3.60;;;5.70;99.90;;;;;;5049293;28;20037;-75
2021/12/07 14:18:45;;;;;;;9.82;3.17;;;5.60;99.90;;;;;;5051452;28;20048;-76
2021/12/07 14:21:11;;;;;;;8.57;2.53;;;5.60;99.90;;;;;;5051273;28;20032;-76
2021/12/07 14:23:43;;;;;;;10.07;3.88;;;5.50;99.90;;;;;;5052087;28;20029;-76
2021/12/07 14:26:12;;;;;;;18.50;3.58;;;5.60;99.90;;;;;;5051014;28;20075;-76
2021/12/07 14:28:56;;;;;;;9.15;3.00;;;5.60;99.90;;;;;;5051430;28;20078;-75
2021/12/07 14:31:41;;;;;;;20.50;4.55;;;5.60;99.90;;;;;;5051316;28;20021;-77
2021/12/07 14:34:13;;;;;;;14.48;2.75;;;5.50;99.90;;;;;;5050817;28;20021;-78
2021/12/07 14:36:42;;;;;;;11.30;2.63;;;5.50;99.90;;;;;;5050899;28;20048;-77